createdAt,value
2023-03-06T00:00:00.211Z,17.59
2023-03-06T00:02:26.800Z,17.55
2023-03-06T00:04:53.266Z,17.80
2023-03-06T00:07:19.839Z,17.57
2023-03-06T00:09:46.453Z,17.60
2023-03-06T00:12:12.944Z,17.52
2023-03-06T00:14:39.502Z,17.53
2023-03-06T00:17:07.312Z,17.49
2023-03-06T00:19:33.858Z,17.60
2023-03-06T00:22:00.367Z,17.56
2023-03-06T00:24:27.521Z,17.52
2023-03-06T00:26:54.009Z,17.53
2023-03-06T00:29:20.489Z,17.50
2023-03-06T00:31:47.240Z,17.45
2023-03-06T00:34:15.303Z,17.56
2023-03-06T00:36:41.828Z,17.54
2023-03-06T00:39:08.480Z,17.57
2023-03-06T00:41:35.125Z,17.59
2023-03-06T00:44:01.586Z,17.46
2023-03-06T00:46:28.116Z,17.51
2023-03-06T00:48:54.586Z,17.53
2023-03-06T00:51:22.546Z,17.45
2023-03-06T00:53:49.112Z,17.49
2023-03-06T00:56:15.732Z,17.47
2023-03-06T00:58:42.314Z,17.50
2023-03-06T01:01:09.032Z,17.37
2023-03-06T01:03:35.540Z,17.51
2023-03-06T01:06:02.046Z,17.45
2023-03-06T01:08:29.903Z,17.46
2023-03-06T01:10:56.528Z,17.54
2023-03-06T01:13:23.120Z,17.50
2023-03-06T01:15:49.674Z,17.50
2023-03-06T01:18:16.217Z,17.40
2023-03-06T01:20:42.662Z,17.46
2023-03-06T01:23:09.214Z,17.35
2023-03-06T01:25:37.014Z,17.34
2023-03-06T01:28:03.585Z,17.51
2023-03-06T01:30:30.077Z,17.48
2023-03-06T01:32:56.610Z,17.56
2023-03-06T01:35:23.215Z,17.51
2023-03-06T01:37:49.742Z,17.61
2023-03-06T01:40:16.269Z,17.52
2023-03-06T01:42:46.367Z,17.52
2023-03-06T01:45:33.214Z,17.52
2023-03-06T01:47:59.753Z,17.57
2023-03-06T01:50:26.440Z,17.56
2023-03-06T01:52:57.249Z,17.53
2023-03-06T01:55:28.859Z,17.55
2023-03-06T01:58:00.212Z,17.57
2023-03-06T02:00:28.743Z,17.46
2023-03-06T02:03:00.518Z,17.48
2023-03-06T02:05:27.275Z,17.48
2023-03-06T02:07:54.451Z,17.72
2023-03-06T02:10:21.700Z,17.51
2023-03-06T02:12:50.222Z,17.48
2023-03-06T02:15:21.923Z,17.74
2023-03-06T02:17:49.951Z,17.91
2023-03-06T02:20:24.638Z,17.90
2023-03-06T02:22:57.904Z,17.95
2023-03-06T02:25:33.314Z,18.06
2023-03-06T02:28:00.518Z,18.27
2023-03-06T02:30:28.535Z,18.44
2023-03-06T02:32:55.624Z,18.63
2023-03-06T02:35:24.040Z,18.63
2023-03-06T02:37:51.318Z,18.74
2023-03-06T02:40:20.566Z,18.89
2023-03-06T02:42:51.103Z,18.80
2023-03-06T02:45:22.758Z,18.92
2023-03-06T02:47:49.240Z,19.04
2023-03-06T02:50:16.137Z,19.13
2023-03-06T02:52:42.637Z,19.08
2023-03-06T02:55:09.412Z,19.10
2023-03-06T02:57:35.930Z,19.27
2023-03-06T03:00:04.468Z,19.37
2023-03-06T03:02:30.971Z,19.41
2023-03-06T03:04:57.526Z,19.41
2023-03-06T03:07:24.115Z,19.48
2023-03-06T03:09:50.605Z,19.48
2023-03-06T03:12:17.132Z,19.45
2023-03-06T03:14:43.737Z,19.45
2023-03-06T03:17:11.637Z,19.59
2023-03-06T03:19:38.159Z,19.56
2023-03-06T03:22:04.825Z,19.62
2023-03-06T03:24:31.933Z,19.67
2023-03-06T03:26:58.693Z,19.71
2023-03-06T03:29:25.365Z,19.86
2023-03-06T03:31:51.870Z,19.78
2023-03-06T03:34:19.841Z,19.81
2023-03-06T03:36:46.641Z,19.82
2023-03-06T03:39:13.292Z,19.80
2023-03-06T03:41:39.833Z,19.94
2023-03-06T03:44:06.315Z,19.91
2023-03-06T03:46:33.045Z,19.96
2023-03-06T03:48:59.597Z,20.00
2023-03-06T03:51:27.470Z,20.00
2023-03-06T03:53:54.176Z,20.10
2023-03-06T03:56:20.660Z,20.13
2023-03-06T03:58:47.174Z,20.25
2023-03-06T04:01:13.904Z,20.13
2023-03-06T04:03:40.408Z,20.28
2023-03-06T04:06:07.421Z,20.23
2023-03-06T04:08:35.334Z,20.32
2023-03-06T04:11:01.958Z,20.18
2023-03-06T04:13:28.789Z,20.14
2023-03-06T04:15:56.297Z,20.10
2023-03-06T04:18:23.792Z,20.24
2023-03-06T04:20:50.772Z,20.44
2023-03-06T04:23:18.863Z,20.29
2023-03-06T04:25:47.168Z,20.20
2023-03-06T04:28:14.410Z,20.31
2023-03-06T04:30:41.215Z,20.24
2023-03-06T04:33:07.881Z,20.34
2023-03-06T04:35:34.470Z,20.37
2023-03-06T04:38:01.039Z,20.35
2023-03-06T04:40:29.730Z,20.26
2023-03-06T04:42:59.363Z,20.37
2023-03-06T04:45:27.696Z,20.42
2023-03-06T04:47:54.842Z,20.44
2023-03-06T04:50:22.722Z,20.44
2023-03-06T04:52:49.685Z,20.52
2023-03-06T04:55:17.785Z,20.52
2023-03-06T04:57:46.255Z,20.52
2023-03-06T05:00:17.960Z,20.56
2023-03-06T05:02:44.563Z,20.55
2023-03-06T05:05:12.057Z,20.52
2023-03-06T05:07:39.367Z,20.55
2023-03-06T05:10:07.927Z,20.52
2023-03-06T05:12:35.768Z,20.49
2023-03-06T05:15:02.306Z,20.57
2023-03-06T05:17:30.198Z,20.77
2023-03-06T05:19:56.685Z,20.78
2023-03-06T05:22:23.622Z,20.84
2023-03-06T05:24:50.217Z,20.81
2023-03-06T05:27:16.988Z,20.83
2023-03-06T05:29:43.649Z,20.98
2023-03-06T05:32:10.382Z,20.88
2023-03-06T05:34:39.369Z,20.91
2023-03-06T05:37:05.906Z,20.98
2023-03-06T05:39:32.391Z,21.04
2023-03-06T05:41:58.901Z,20.96
2023-03-06T05:44:29.978Z,20.89
2023-03-06T05:46:56.469Z,20.94
2023-03-06T05:49:22.963Z,20.87
2023-03-06T05:51:50.830Z,20.83
2023-03-06T05:54:17.439Z,20.91
2023-03-06T05:56:43.933Z,21.01
2023-03-06T05:59:10.567Z,21.00
2023-03-06T06:01:37.217Z,20.95
2023-03-06T06:04:03.773Z,20.98
2023-03-06T06:06:30.280Z,21.07
2023-03-06T06:08:58.128Z,21.11
2023-03-06T06:11:24.627Z,20.74
2023-03-06T06:13:51.183Z,20.13
2023-03-06T06:16:17.690Z,19.75
2023-03-06T06:18:44.303Z,20.21
2023-03-06T06:21:12.727Z,20.77
2023-03-06T06:23:39.216Z,20.91
2023-03-06T06:26:09.375Z,21.14
2023-03-06T06:28:36.001Z,21.14
2023-03-06T06:31:08.025Z,21.09
2023-03-06T06:33:34.798Z,21.10
2023-03-06T06:36:01.460Z,21.19
2023-03-06T06:38:28.014Z,21.11
2023-03-06T06:41:27.125Z,21.18
2023-03-06T06:43:42.438Z,21.22
2023-03-06T06:46:36.501Z,21.20
2023-03-06T06:48:55.402Z,21.21
2023-03-06T06:51:22.517Z,21.24
2023-03-06T06:53:51.105Z,21.31
2023-03-06T06:56:18.198Z,21.36
2023-03-06T06:58:46.064Z,21.33
2023-03-06T07:01:13.762Z,21.14
2023-03-06T07:03:40.986Z,21.24
2023-03-06T07:06:07.596Z,21.28
2023-03-06T07:08:34.456Z,21.35
2023-03-06T07:11:05.747Z,21.24
2023-03-06T07:13:32.387Z,21.38
2023-03-06T07:16:00.356Z,21.37
2023-03-06T07:18:27.114Z,21.44
2023-03-06T07:20:53.686Z,21.46
2023-03-06T07:23:20.228Z,21.52
2023-03-06T07:25:46.872Z,21.46
2023-03-06T07:28:13.805Z,21.42
2023-03-06T07:30:40.684Z,21.72
2023-03-06T07:33:09.266Z,21.55
2023-03-06T07:35:36.607Z,21.57
2023-03-06T07:38:03.173Z,21.50
2023-03-06T07:40:29.716Z,21.44
2023-03-06T07:43:09.239Z,21.60
2023-03-06T07:45:39.807Z,21.60
2023-03-06T07:48:07.804Z,21.54
2023-03-06T07:50:34.552Z,21.29
2023-03-06T07:53:01.132Z,21.53
2023-03-06T07:55:27.916Z,21.55
2023-03-06T07:57:54.609Z,21.14
2023-03-06T08:00:21.831Z,21.32
2023-03-06T08:02:48.532Z,21.41
2023-03-06T08:05:17.263Z,21.47
2023-03-06T08:07:44.695Z,20.80
2023-03-06T08:10:14.602Z,20.78
2023-03-06T08:12:41.299Z,20.15
2023-03-06T08:15:10.030Z,20.10
2023-03-06T08:17:36.975Z,20.21
2023-03-06T08:20:04.046Z,20.15
2023-03-06T08:22:32.046Z,20.22
2023-03-06T08:24:58.596Z,20.18
2023-03-06T08:27:25.146Z,20.15
2023-03-06T08:29:51.860Z,20.19
2023-03-06T08:32:18.782Z,20.24
2023-03-06T08:34:45.368Z,20.26
2023-03-06T08:37:11.957Z,20.16
2023-03-06T08:39:39.885Z,20.08
2023-03-06T08:42:06.727Z,20.17
2023-03-06T08:44:33.280Z,20.51
2023-03-06T08:47:00.102Z,20.55
2023-03-06T08:49:26.666Z,20.77
2023-03-06T08:51:53.214Z,20.76
2023-03-06T08:54:20.151Z,20.75
2023-03-06T08:56:48.032Z,20.70
2023-03-06T08:59:14.811Z,20.60
2023-03-06T09:01:41.459Z,20.42
2023-03-06T09:04:10.243Z,20.38
2023-03-06T09:06:39.733Z,20.61
2023-03-06T09:09:07.347Z,20.42
2023-03-06T09:11:34.227Z,20.23
2023-03-06T09:14:02.506Z,19.76
2023-03-06T09:16:29.229Z,19.43
2023-03-06T09:18:55.889Z,19.56
2023-03-06T09:21:23.015Z,19.41
2023-03-06T09:23:50.122Z,19.48
2023-03-06T09:26:16.884Z,19.69
2023-03-06T09:28:43.408Z,19.76
2023-03-06T09:31:13.571Z,19.70
2023-03-06T09:33:40.292Z,19.49
2023-03-06T09:36:10.334Z,19.58
2023-03-06T09:38:36.897Z,19.84
2023-03-06T09:43:37.943Z,19.63
2023-03-06T09:46:18.312Z,19.60
2023-03-06T09:48:55.242Z,19.66
2023-03-06T09:51:28.515Z,19.31
2023-03-06T09:54:02.239Z,19.31
2023-03-06T09:56:33.183Z,19.10
2023-03-06T09:59:06.821Z,19.00
2023-03-06T10:01:39.871Z,19.64
2023-03-06T10:04:19.261Z,19.96
2023-03-06T10:06:48.243Z,20.00
2023-03-06T10:09:18.946Z,20.35
2023-03-06T10:11:51.510Z,20.39
2023-03-06T10:14:24.655Z,20.54
2023-03-06T10:16:52.505Z,20.38
2023-03-06T10:19:20.713Z,20.30
2023-03-06T10:21:56.274Z,20.24
2023-03-06T10:24:33.692Z,20.18
2023-03-06T10:27:10.359Z,20.31
2023-03-06T10:30:01.682Z,20.70
2023-03-06T10:32:48.265Z,20.34
2023-03-06T10:35:19.294Z,19.77
2023-03-06T10:37:47.248Z,20.02
2023-03-06T10:40:18.506Z,19.93
2023-03-06T10:42:45.105Z,19.60
2023-03-06T10:45:13.621Z,19.62
2023-03-06T10:47:43.195Z,19.39
2023-03-06T10:50:23.462Z,19.47
2023-03-06T10:53:00.658Z,19.14
2023-03-06T10:55:29.952Z,18.97
2023-03-06T10:57:56.980Z,19.06
2023-03-06T11:00:28.298Z,18.93
2023-03-06T11:03:13.881Z,18.82
2023-03-06T11:05:40.670Z,19.35
2023-03-06T11:08:21.001Z,19.89
2023-03-06T11:10:55.815Z,20.43
2023-03-06T11:13:24.135Z,20.71
2023-03-06T11:15:57.386Z,20.83
2023-03-06T11:18:29.551Z,20.93
2023-03-06T11:20:56.090Z,20.87
2023-03-06T11:23:32.812Z,20.73
2023-03-06T11:26:10.836Z,20.72
2023-03-06T11:28:40.788Z,20.87
2023-03-06T11:31:13.949Z,21.12
2023-03-06T11:33:47.297Z,21.00
2023-03-06T11:36:18.467Z,20.98
2023-03-06T11:38:49.425Z,20.96
2023-03-06T11:41:23.925Z,20.96
2023-03-06T11:43:58.254Z,20.88
2023-03-06T11:46:28.321Z,21.03
2023-03-06T11:49:02.228Z,20.99
2023-03-06T11:51:30.243Z,21.04
2023-03-06T11:54:00.127Z,21.02
2023-03-06T11:56:36.139Z,21.03
2023-03-06T11:59:24.033Z,20.97
2023-03-06T12:02:02.061Z,21.10
2023-03-06T12:04:47.128Z,21.08
2023-03-06T12:07:22.347Z,21.11
2023-03-06T12:09:55.810Z,20.91
2023-03-06T12:12:50.679Z,21.04
2023-03-06T12:15:26.978Z,20.81
2023-03-06T12:18:06.624Z,21.13
2023-03-06T12:20:46.294Z,21.06
2023-03-06T12:23:30.236Z,21.26
2023-03-06T12:26:02.193Z,21.28
2023-03-06T12:28:41.847Z,21.12
2023-03-06T12:31:23.770Z,21.20
2023-03-06T12:34:01.729Z,21.31
2023-03-06T12:36:38.655Z,21.19
2023-03-06T12:39:10.024Z,21.43
2023-03-06T12:41:47.382Z,21.31
2023-03-06T12:44:29.793Z,21.38
2023-03-06T12:47:02.080Z,21.37
2023-03-06T12:49:32.919Z,21.11
2023-03-06T12:52:04.666Z,21.36
2023-03-06T12:54:36.273Z,21.13
2023-03-06T12:57:05.736Z,21.32
2023-03-06T12:59:39.030Z,21.29
2023-03-06T13:02:26.677Z,21.30
2023-03-06T13:05:21.505Z,21.23
2023-03-06T13:08:02.216Z,21.25
2023-03-06T13:10:31.872Z,21.31
2023-03-06T13:13:00.466Z,21.38
2023-03-06T13:15:38.289Z,21.32
2023-03-06T13:18:46.507Z,21.31
2023-03-06T13:21:37.889Z,21.28
2023-03-06T13:24:13.698Z,21.07
2023-03-06T13:26:50.832Z,21.35
2023-03-06T13:29:37.129Z,21.29
2023-03-06T13:32:07.260Z,21.03
2023-03-06T13:34:37.557Z,20.88
2023-03-06T13:37:28.945Z,20.91
2023-03-06T13:40:15.384Z,20.68
2023-03-06T13:45:38.904Z,20.60
2023-03-06T13:48:44.170Z,20.35
2023-03-06T13:50:53.302Z,20.24
2023-03-06T13:53:44.885Z,20.13
2023-03-06T13:56:39.291Z,20.08
2023-03-06T13:59:24.152Z,19.91
2023-03-06T14:02:07.261Z,19.90
2023-03-06T14:04:38.444Z,19.98
2023-03-06T14:07:21.990Z,20.07
2023-03-06T14:09:59.611Z,20.11
2023-03-06T14:12:32.689Z,19.99
2023-03-06T14:15:03.676Z,19.89
2023-03-06T14:17:33.093Z,20.05
2023-03-06T14:20:04.296Z,19.98
2023-03-06T14:22:31.095Z,19.95
2023-03-06T14:25:02.826Z,20.23
2023-03-06T14:27:41.965Z,19.98
2023-03-06T14:30:12.199Z,19.69
2023-03-06T14:32:40.730Z,19.66
2023-03-06T14:35:21.642Z,19.80
2023-03-06T14:37:49.162Z,19.79
2023-03-06T14:40:18.699Z,19.97
2023-03-06T14:42:45.381Z,19.63
2023-03-06T14:45:16.494Z,20.01
2023-03-06T14:47:52.289Z,19.88
2023-03-06T14:50:21.174Z,19.77
2023-03-06T14:52:48.939Z,19.92
2023-03-06T14:55:19.179Z,19.77
2023-03-06T14:57:48.766Z,19.80
2023-03-06T15:00:19.281Z,19.91
2023-03-06T15:02:49.333Z,19.85
2023-03-06T15:05:21.744Z,19.71
2023-03-06T15:07:49.493Z,19.74
2023-03-06T15:10:22.945Z,19.67
2023-03-06T15:12:49.477Z,19.85
2023-03-06T15:15:28.036Z,19.64
2023-03-06T15:17:56.594Z,19.72
2023-03-06T15:20:37.616Z,19.67
2023-03-06T15:23:18.132Z,19.70
2023-03-06T15:25:55.297Z,19.59
2023-03-06T15:28:28.076Z,19.50
2023-03-06T15:31:04.809Z,19.58
2023-03-06T15:33:32.769Z,19.79
2023-03-06T15:36:00.804Z,19.67
2023-03-06T15:38:34.922Z,19.63
2023-03-06T15:41:03.019Z,19.88
2023-03-06T15:43:34.430Z,19.96
2023-03-06T15:46:01.626Z,20.32
2023-03-06T15:48:28.658Z,20.76
2023-03-06T15:50:56.572Z,20.93
2023-03-06T15:53:23.218Z,20.91
2023-03-06T15:55:50.768Z,21.07
2023-03-06T15:58:19.644Z,20.85
2023-03-06T16:00:46.204Z,21.04
2023-03-06T16:03:12.979Z,21.08
2023-03-06T16:05:39.672Z,21.07
2023-03-06T16:08:07.856Z,21.07
2023-03-06T16:10:39.781Z,21.14
2023-03-06T16:13:11.071Z,21.13
2023-03-06T16:15:39.321Z,21.13
2023-03-06T16:18:06.315Z,21.32
2023-03-06T16:20:33.054Z,21.28
2023-03-06T16:22:59.660Z,21.31
2023-03-06T16:25:28.196Z,21.23
2023-03-06T16:27:56.777Z,21.09
2023-03-06T16:30:25.573Z,21.25
2023-03-06T16:32:52.679Z,21.21
2023-03-06T16:35:19.242Z,21.14
2023-03-06T16:37:46.535Z,21.26
2023-03-06T16:40:18.708Z,21.25
2023-03-06T16:42:46.865Z,21.37
2023-03-06T16:45:13.831Z,21.26
2023-03-06T16:47:40.743Z,21.36
2023-03-06T16:50:20.853Z,21.34
2023-03-06T16:52:47.516Z,21.51
2023-03-06T16:55:14.034Z,21.36
2023-03-06T16:57:40.591Z,21.28
2023-03-06T17:00:09.827Z,21.32
2023-03-06T17:02:36.584Z,21.19
2023-03-06T17:05:03.345Z,21.11
2023-03-06T17:07:29.865Z,21.09
2023-03-06T17:09:56.529Z,20.97
2023-03-06T17:12:23.118Z,20.93
2023-03-06T17:14:49.694Z,20.88
2023-03-06T17:17:17.605Z,20.68
2023-03-06T17:19:47.070Z,20.58
2023-03-06T17:22:13.891Z,20.55
2023-03-06T17:24:40.518Z,20.55
2023-03-06T17:27:07.069Z,20.44
2023-03-06T17:29:33.633Z,20.31
2023-03-06T17:32:00.211Z,20.28
2023-03-06T17:34:28.194Z,20.25
2023-03-06T17:36:55.370Z,20.44
2023-03-06T17:39:23.113Z,20.64
2023-03-06T17:41:49.676Z,20.59
2023-03-06T17:44:16.426Z,20.57
2023-03-06T17:46:43.282Z,20.58
2023-03-06T17:49:09.880Z,20.52
2023-03-06T17:51:38.489Z,20.36
2023-03-06T17:54:05.181Z,20.45
2023-03-06T17:56:31.749Z,20.14
2023-03-06T17:58:58.267Z,20.07
2023-03-06T18:01:25.003Z,20.04
2023-03-06T18:03:51.548Z,20.04
2023-03-06T18:06:19.135Z,20.00
2023-03-06T18:08:47.069Z,20.00
2023-03-06T18:11:14.034Z,19.90
2023-03-06T18:13:42.330Z,19.95
2023-03-06T18:16:11.111Z,19.94
2023-03-06T18:18:37.953Z,19.83
2023-03-06T18:21:05.219Z,19.90
2023-03-06T18:23:31.811Z,19.87
2023-03-06T18:26:09.804Z,19.83
2023-03-06T18:28:36.715Z,19.76
2023-03-06T18:31:03.313Z,19.81
2023-03-06T18:33:29.818Z,19.74
2023-03-06T18:35:56.385Z,19.67
2023-03-06T18:38:23.085Z,19.72
2023-03-06T18:40:49.597Z,19.71
2023-03-06T18:43:17.480Z,19.78
2023-03-06T18:45:53.473Z,19.74
2023-03-06T18:48:20.055Z,19.89
2023-03-06T18:50:46.580Z,19.76
2023-03-06T18:53:13.104Z,19.62
2023-03-06T18:55:46.820Z,19.63
2023-03-06T18:58:13.456Z,19.61
2023-03-06T19:00:41.469Z,19.63
2023-03-06T19:03:08.003Z,19.65
2023-03-06T19:05:38.648Z,19.66
2023-03-06T19:08:05.343Z,19.64
2023-03-06T19:10:34.324Z,19.59
2023-03-06T19:13:00.941Z,19.65
2023-03-06T19:15:27.489Z,19.60
2023-03-06T19:17:55.411Z,19.58
2023-03-06T19:20:22.153Z,19.71
2023-03-06T19:22:48.712Z,19.66
2023-03-06T19:25:15.648Z,19.76
2023-03-06T19:27:42.182Z,19.64
2023-03-06T19:30:09.640Z,19.65
2023-03-06T19:32:36.239Z,19.65
2023-03-06T19:35:04.358Z,19.56
2023-03-06T19:37:30.914Z,19.53
2023-03-06T19:39:57.475Z,19.63
2023-03-06T19:42:24.151Z,19.56
2023-03-06T19:44:50.798Z,19.53
2023-03-06T19:47:17.348Z,19.59
2023-03-06T19:49:43.870Z,19.60
2023-03-06T19:52:11.643Z,19.55
2023-03-06T19:54:38.240Z,19.54
2023-03-06T19:57:04.793Z,19.50
2023-03-06T19:59:31.358Z,19.50
2023-03-06T20:01:57.963Z,19.59
2023-03-06T20:04:24.621Z,19.58
2023-03-06T20:06:51.560Z,19.61
2023-03-06T20:09:19.630Z,19.52
2023-03-06T20:11:46.149Z,19.56
2023-03-06T20:14:13.114Z,19.45
2023-03-06T20:16:39.804Z,19.47
2023-03-06T20:19:06.484Z,19.52
2023-03-06T20:21:34.798Z,19.59
2023-03-06T20:24:01.393Z,19.60
2023-03-06T20:26:29.479Z,19.64
2023-03-06T20:28:56.690Z,19.48
2023-03-06T20:31:26.023Z,19.52
2023-03-06T20:33:54.535Z,19.48
2023-03-06T20:36:23.074Z,19.36
2023-03-06T20:38:49.922Z,19.44
2023-03-06T20:41:17.887Z,19.44
2023-03-06T20:43:45.766Z,19.53
2023-03-06T20:46:13.869Z,19.50
2023-03-06T20:48:40.746Z,19.41
2023-03-06T20:51:12.115Z,19.49
2023-03-06T20:53:38.638Z,19.50
2023-03-06T20:56:05.851Z,19.60
2023-03-06T20:58:32.631Z,19.48
2023-03-06T21:01:02.398Z,19.48
2023-03-06T21:03:29.229Z,19.41
2023-03-06T21:05:55.837Z,19.50
2023-03-06T21:08:22.820Z,19.49
2023-03-06T21:10:49.976Z,19.53
2023-03-06T21:13:17.022Z,19.50
2023-03-06T21:15:44.783Z,19.37
2023-03-06T21:18:13.018Z,19.39
2023-03-06T21:20:40.877Z,19.45
2023-03-06T21:23:08.264Z,19.43
2023-03-06T21:25:34.918Z,19.53
2023-03-06T21:28:01.525Z,19.43
2023-03-06T21:30:28.739Z,19.47
2023-03-06T21:32:55.464Z,19.46
2023-03-06T21:35:23.267Z,19.42
2023-03-06T21:37:49.795Z,19.44
2023-03-06T21:40:16.524Z,19.46
2023-03-06T21:42:43.113Z,19.44
2023-03-06T21:45:10.267Z,19.44
2023-03-06T21:47:36.896Z,19.44
2023-03-06T21:50:03.688Z,19.46
2023-03-06T21:52:31.660Z,19.44
2023-03-06T21:54:58.163Z,19.43
2023-03-06T21:57:24.750Z,19.39
2023-03-06T21:59:51.268Z,19.50
2023-03-06T22:02:18.003Z,19.46
2023-03-06T22:04:44.553Z,19.41
2023-03-06T22:07:11.130Z,19.50
2023-03-06T22:09:38.964Z,19.41
2023-03-06T22:12:05.996Z,19.36
2023-03-06T22:14:32.519Z,19.31
2023-03-06T22:17:02.469Z,19.43
2023-03-06T22:19:29.001Z,19.30
2023-03-06T22:21:55.675Z,19.29
2023-03-06T22:24:22.209Z,19.37
2023-03-06T22:26:50.051Z,19.36
2023-03-06T22:29:16.564Z,19.60
2023-03-06T22:31:43.116Z,19.34
2023-03-06T22:34:09.983Z,19.38
2023-03-06T22:36:36.657Z,19.50
2023-03-06T22:39:04.166Z,19.50
2023-03-06T22:41:31.296Z,19.50
2023-03-06T22:44:00.855Z,19.39
2023-03-06T22:46:27.818Z,19.32
2023-03-06T22:48:55.566Z,19.31
2023-03-06T22:51:22.079Z,19.33
2023-03-06T22:53:48.925Z,19.30
2023-03-06T22:56:17.491Z,19.27
2023-03-06T22:58:44.163Z,19.30
2023-03-06T23:01:14.232Z,19.32
2023-03-06T23:03:42.643Z,19.36
2023-03-06T23:06:11.242Z,19.27
2023-03-06T23:08:38.188Z,19.37
2023-03-06T23:11:08.308Z,19.24
2023-03-06T23:13:34.844Z,19.38
2023-03-06T23:16:02.434Z,19.25
2023-03-06T23:18:30.433Z,19.36
2023-03-06T23:20:56.969Z,19.31
2023-03-06T23:23:23.460Z,19.25
2023-03-06T23:25:50.139Z,19.29
2023-03-06T23:28:16.651Z,19.32
2023-03-06T23:30:43.403Z,19.21
2023-03-06T23:33:10.545Z,19.35
2023-03-06T23:35:38.501Z,19.38
2023-03-06T23:38:05.223Z,19.32
2023-03-06T23:40:33.315Z,19.42
2023-03-06T23:42:59.852Z,19.33
2023-03-06T23:45:26.335Z,19.38
2023-03-06T23:47:52.959Z,19.33
2023-03-06T23:50:19.733Z,19.38
2023-03-06T23:52:47.560Z,19.25
2023-03-06T23:55:14.111Z,19.39
2023-03-06T23:57:40.735Z,19.41
